createdAt,value
2019-04-07T00:00:01.044Z,13.39
2019-04-07T00:02:31.473Z,13.40
2019-04-07T00:05:10.107Z,13.38
2019-04-07T00:07:29.717Z,13.36
2019-04-07T00:09:58.054Z,13.36
2019-04-07T00:12:29.261Z,13.35
2019-04-07T00:14:57.084Z,13.33
2019-04-07T00:17:26.286Z,13.33
2019-04-07T00:19:55.075Z,13.33
2019-04-07T00:22:23.951Z,13.32
2019-04-07T00:24:52.775Z,13.31
2019-04-07T00:27:22.349Z,13.31
2019-04-07T00:29:51.947Z,13.29
2019-04-07T00:32:21.335Z,13.29
2019-04-07T00:34:50.155Z,13.30
2019-04-07T00:37:20.679Z,13.32
2019-04-07T00:39:50.251Z,13.32
2019-04-07T00:42:19.383Z,13.31
2019-04-07T00:44:48.160Z,13.33
2019-04-07T00:47:16.983Z,13.33
2019-04-07T00:49:45.766Z,13.32
2019-04-07T00:52:15.703Z,13.33
2019-04-07T00:54:44.702Z,13.34
2019-04-07T00:57:14.218Z,13.34
2019-04-07T00:59:42.796Z,13.34
2019-04-07T01:02:13.148Z,13.33
2019-04-07T01:04:43.004Z,13.33
2019-04-07T01:07:12.256Z,13.32
2019-04-07T01:09:43.197Z,13.32
2019-04-07T01:12:12.970Z,13.32
2019-04-07T01:14:43.298Z,13.31
2019-04-07T01:17:11.755Z,13.32
2019-04-07T01:19:40.743Z,13.33
2019-04-07T01:22:09.960Z,13.32
2019-04-07T01:24:38.405Z,13.31
2019-04-07T01:27:08.195Z,13.33
2019-04-07T01:29:36.451Z,13.33
2019-04-07T01:32:06.009Z,13.34
2019-04-07T01:34:34.967Z,13.33
2019-04-07T01:37:03.512Z,13.31
2019-04-07T01:39:32.236Z,13.29
2019-04-07T01:42:07.120Z,13.28
2019-04-07T01:44:45.136Z,13.26
2019-04-07T01:47:23.054Z,13.23
2019-04-07T01:49:56.608Z,13.22
2019-04-07T01:52:33.731Z,13.19
2019-04-07T01:55:08.044Z,13.14
2019-04-07T01:58:46.044Z,13.09
2019-04-07T02:01:20.864Z,12.97
2019-04-07T02:03:59.816Z,12.89
2019-04-07T02:06:35.172Z,12.79
2019-04-07T02:09:17.202Z,12.74
2019-04-07T02:12:22.313Z,12.69
2019-04-07T02:15:02.331Z,12.63
2019-04-07T02:17:35.193Z,12.56
2019-04-07T02:20:10.329Z,12.54
2019-04-07T02:22:44.436Z,12.52
2019-04-07T02:25:25.106Z,12.52
2019-04-07T02:28:01.072Z,12.48
2019-04-07T02:32:39.326Z,12.47
2019-04-07T02:35:14.205Z,12.39
2019-04-07T02:37:50.286Z,12.34
2019-04-07T02:40:25.215Z,12.32
2019-04-07T02:43:01.880Z,12.27
2019-04-07T02:45:34.618Z,12.23
2019-04-07T02:48:14.462Z,12.19
2019-04-07T02:50:54.961Z,12.13
2019-04-07T02:53:34.899Z,12.06
2019-04-07T02:56:13.362Z,11.99
2019-04-07T02:58:48.373Z,11.96
2019-04-07T03:01:26.206Z,11.93
2019-04-07T03:05:05.323Z,11.88
2019-04-07T03:07:39.873Z,11.77
2019-04-07T03:10:15.934Z,11.71
2019-04-07T03:12:53.120Z,11.62
2019-04-07T03:15:32.745Z,11.55
2019-04-07T03:18:07.037Z,11.49
2019-04-07T03:20:48.180Z,11.44
2019-04-07T03:23:22.816Z,11.37
2019-04-07T03:25:58.030Z,11.29
2019-04-07T03:28:42.289Z,11.21
2019-04-07T03:31:21.289Z,11.15
2019-04-07T03:33:52.301Z,11.05
2019-04-07T03:36:30.408Z,11.01
2019-04-07T03:39:03.441Z,10.96
2019-04-07T03:41:39.935Z,10.94
2019-04-07T03:44:14.351Z,10.90
2019-04-07T03:46:47.969Z,10.89
2019-04-07T03:49:25.468Z,10.87
2019-04-07T03:52:59.428Z,10.84
2019-04-07T03:55:36.439Z,10.78
2019-04-07T03:58:12.215Z,10.76
2019-04-07T04:00:55.111Z,10.73
2019-04-07T04:03:32.821Z,10.73
2019-04-07T04:06:08.998Z,10.80
2019-04-07T04:09:19.277Z,10.85
2019-04-07T04:11:52.287Z,10.90
2019-04-07T04:14:25.490Z,10.92
2019-04-07T04:16:56.468Z,10.91
2019-04-07T04:19:26.161Z,10.91
2019-04-07T04:21:54.390Z,10.92
2019-04-07T04:24:23.121Z,10.96
2019-04-07T04:26:53.646Z,11.00
2019-04-07T04:29:23.070Z,11.04
2019-04-07T04:31:50.634Z,11.10
2019-04-07T04:34:20.981Z,11.11
2019-04-07T04:36:50.236Z,11.09
2019-04-07T04:39:20.063Z,11.08
2019-04-07T04:41:47.445Z,11.04
2019-04-07T04:44:16.509Z,11.05
2019-04-07T04:46:45.423Z,11.08
2019-04-07T04:49:15.116Z,11.12
2019-04-07T04:51:44.386Z,11.15
2019-04-07T04:54:14.498Z,11.16
2019-04-07T04:56:43.464Z,11.23
2019-04-07T04:59:12.798Z,11.25
2019-04-07T05:01:42.246Z,11.24
2019-04-07T05:04:11.499Z,11.27
2019-04-07T05:06:41.296Z,11.27
2019-04-07T05:09:09.493Z,11.31
2019-04-07T05:11:38.451Z,11.30
2019-04-07T05:14:08.967Z,11.35
2019-04-07T05:16:38.800Z,11.38
2019-04-07T05:19:07.432Z,11.38
2019-04-07T05:21:36.363Z,11.44
2019-04-07T05:24:06.885Z,11.48
2019-04-07T05:26:35.679Z,11.56
2019-04-07T05:29:04.752Z,11.66
2019-04-07T05:31:34.770Z,11.72
2019-04-07T05:34:03.831Z,11.76
2019-04-07T05:36:32.920Z,11.82
2019-04-07T05:39:03.605Z,11.89
2019-04-07T05:41:33.732Z,11.98
2019-04-07T05:44:03.516Z,12.05
2019-04-07T05:46:32.342Z,12.13
2019-04-07T05:49:01.100Z,12.22
2019-04-07T05:51:31.287Z,12.29
2019-04-07T05:54:00.424Z,12.37
2019-04-07T05:56:29.470Z,12.46
2019-04-07T05:58:58.139Z,12.57
2019-04-07T06:01:26.932Z,12.66
2019-04-07T06:03:56.593Z,12.75
2019-04-07T06:06:25.795Z,12.81
2019-04-07T06:08:53.964Z,12.94
2019-04-07T06:11:23.589Z,13.11
2019-04-07T06:13:52.927Z,13.26
2019-04-07T06:16:22.474Z,13.40
2019-04-07T06:18:51.122Z,13.54
2019-04-07T06:21:19.847Z,13.88
2019-04-07T06:23:48.758Z,15.01
2019-04-07T06:26:18.761Z,16.42
2019-04-07T06:28:51.572Z,17.44
2019-04-07T06:31:16.457Z,18.19
2019-04-07T06:33:45.829Z,19.17
2019-04-07T06:36:17.630Z,19.77
2019-04-07T06:38:50.319Z,19.99
2019-04-07T06:41:12.726Z,20.10
2019-04-07T06:43:41.539Z,20.23
2019-04-07T06:46:18.448Z,20.82
2019-04-07T06:48:52.935Z,20.42
2019-04-07T06:51:30.894Z,20.50
2019-04-07T06:54:02.153Z,21.14
2019-04-07T06:56:37.005Z,21.72
2019-04-07T06:59:15.303Z,22.24
2019-04-07T07:01:50.212Z,22.86
2019-04-07T07:05:22.637Z,23.31
2019-04-07T07:07:57.563Z,23.43
2019-04-07T07:10:35.633Z,23.29
2019-04-07T07:13:11.048Z,23.47
2019-04-07T07:15:41.164Z,23.31
2019-04-07T07:19:15.937Z,23.10
2019-04-07T07:22:18.640Z,22.99
2019-04-07T07:24:47.419Z,22.79
2019-04-07T07:27:16.354Z,22.25
2019-04-07T07:29:47.478Z,22.40
2019-04-07T07:32:14.814Z,22.36
2019-04-07T07:34:44.657Z,22.66
2019-04-07T07:37:14.919Z,22.40
2019-04-07T07:39:45.108Z,21.93
2019-04-07T07:42:14.730Z,22.34
2019-04-07T07:44:44.282Z,22.87
2019-04-07T07:47:15.101Z,23.48
2019-04-07T07:49:44.284Z,23.17
2019-04-07T07:52:17.136Z,22.84
2019-04-07T07:54:46.122Z,23.14
2019-04-07T07:57:14.420Z,23.69
2019-04-07T07:59:43.219Z,23.91
2019-04-07T08:02:11.888Z,24.38
2019-04-07T08:04:40.431Z,24.51
2019-04-07T08:07:13.423Z,24.35
2019-04-07T08:09:39.436Z,23.84
2019-04-07T08:12:10.307Z,23.66
2019-04-07T08:14:38.748Z,23.06
2019-04-07T08:17:09.399Z,21.89
2019-04-07T08:19:40.683Z,21.57
2019-04-07T08:22:07.698Z,20.75
2019-04-07T08:24:37.258Z,20.60
2019-04-07T08:27:08.804Z,20.19
2019-04-07T08:29:37.506Z,19.70
2019-04-07T08:32:06.590Z,19.32
2019-04-07T08:34:34.923Z,19.15
2019-04-07T08:37:05.950Z,19.25
2019-04-07T08:39:35.431Z,19.24
2019-04-07T08:42:07.678Z,19.44
2019-04-07T08:44:32.003Z,19.23
2019-04-07T08:47:01.371Z,19.20
2019-04-07T08:49:32.355Z,19.25
2019-04-07T08:52:03.224Z,19.26
2019-04-07T08:54:28.653Z,19.33
2019-04-07T08:56:58.281Z,19.49
2019-04-07T08:59:27.040Z,19.61
2019-04-07T09:01:55.845Z,19.61
2019-04-07T09:04:25.216Z,19.57
2019-04-07T09:06:53.761Z,19.67
2019-04-07T09:09:32.568Z,19.71
2019-04-07T09:11:54.985Z,19.30
2019-04-07T09:14:20.286Z,19.24
2019-04-07T09:16:56.203Z,19.48
2019-04-07T09:19:45.746Z,19.83
2019-04-07T09:22:22.949Z,19.71
2019-04-07T09:25:52.924Z,19.49
2019-04-07T09:28:31.856Z,19.53
2019-04-07T09:31:11.965Z,19.46
2019-04-07T09:34:20.638Z,19.58
2019-04-07T09:36:56.365Z,19.73
2019-04-07T09:39:34.538Z,19.80
2019-04-07T09:42:35.993Z,20.15
2019-04-07T09:45:26.503Z,20.08
2019-04-07T09:48:04.353Z,20.11
2019-04-07T09:50:38.639Z,20.01
2019-04-07T09:53:17.962Z,20.03
2019-04-07T09:56:23.966Z,20.45
2019-04-07T09:59:55.660Z,20.81
2019-04-07T10:02:34.146Z,21.08
2019-04-07T10:05:02.768Z,21.00
2019-04-07T10:07:41.684Z,21.28
2019-04-07T10:10:14.772Z,21.55
2019-04-07T10:12:51.137Z,21.68
2019-04-07T10:17:28.919Z,21.77
2019-04-07T10:20:04.349Z,21.84
2019-04-07T10:23:40.275Z,21.92
2019-04-07T10:26:16.694Z,21.94
2019-04-07T10:28:51.672Z,22.11
2019-04-07T10:31:23.577Z,22.30
2019-04-07T10:33:58.349Z,22.15
2019-04-07T10:36:37.421Z,22.33
2019-04-07T10:39:15.659Z,22.43
2019-04-07T10:43:58.979Z,22.83
2019-04-07T10:46:34.137Z,22.54
2019-04-07T10:49:11.371Z,22.54
2019-04-07T10:51:51.295Z,22.54
2019-04-07T10:54:25.203Z,22.69
2019-04-07T10:56:59.845Z,22.95
2019-04-07T10:59:36.825Z,23.04
2019-04-07T11:04:12.790Z,23.05
2019-04-07T11:08:51.900Z,22.84
2019-04-07T11:11:24.585Z,22.74
2019-04-07T11:13:58.807Z,23.03
2019-04-07T11:16:36.523Z,23.21
2019-04-07T11:21:14.350Z,23.07
2019-04-07T11:23:49.037Z,22.89
2019-04-07T11:26:23.527Z,23.08
2019-04-07T11:28:57.295Z,23.34
2019-04-07T11:31:35.203Z,23.43
2019-04-07T11:34:08.794Z,23.05
2019-04-07T11:36:44.398Z,23.04
2019-04-07T11:39:18.899Z,23.08
2019-04-07T11:41:52.827Z,23.29
2019-04-07T11:44:28.009Z,23.58
2019-04-07T11:47:02.218Z,23.67
2019-04-07T11:49:35.832Z,23.55
2019-04-07T11:52:21.047Z,23.54
2019-04-07T11:54:55.396Z,23.46
2019-04-07T11:57:45.216Z,23.31
2019-04-07T12:00:18.392Z,23.36
2019-04-07T12:02:53.612Z,23.31
2019-04-07T12:05:28.733Z,23.34
2019-04-07T12:09:06.530Z,23.21
2019-04-07T12:11:54.416Z,23.29
2019-04-07T12:14:28.788Z,23.03
2019-04-07T12:17:06.943Z,23.27
2019-04-07T12:19:39.830Z,23.62
2019-04-07T12:23:16.020Z,23.85
2019-04-07T12:25:51.439Z,24.01
2019-04-07T12:28:25.749Z,23.65
2019-04-07T12:31:03.500Z,23.54
2019-04-07T12:33:40.350Z,23.47
2019-04-07T12:36:14.597Z,23.42
2019-04-07T12:38:52.246Z,23.52
2019-04-07T12:41:31.793Z,23.64
2019-04-07T12:44:04.394Z,23.65
2019-04-07T12:46:44.267Z,23.74
2019-04-07T12:49:17.246Z,23.84
2019-04-07T12:51:55.970Z,23.80
2019-04-07T12:54:28.765Z,23.94
2019-04-07T12:59:06.885Z,23.80
2019-04-07T13:01:44.895Z,23.76
2019-04-07T13:04:15.533Z,23.86
2019-04-07T13:06:49.077Z,23.96
2019-04-07T13:09:24.593Z,23.83
2019-04-07T13:11:55.920Z,23.93
2019-04-07T13:14:40.026Z,24.00
2019-04-07T13:17:11.668Z,23.68
2019-04-07T13:19:58.395Z,23.60
2019-04-07T13:22:32.540Z,23.43
2019-04-07T13:25:04.731Z,23.53
2019-04-07T13:27:43.060Z,23.43
2019-04-07T13:30:24.150Z,23.45
2019-04-07T13:33:01.936Z,23.27
2019-04-07T13:35:35.679Z,23.02
2019-04-07T13:38:35.960Z,23.12
2019-04-07T13:41:10.457Z,23.15
2019-04-07T13:43:44.847Z,23.05
2019-04-07T13:46:30.647Z,22.93
2019-04-07T13:49:00.123Z,22.84
2019-04-07T13:51:32.960Z,22.82
2019-04-07T13:54:06.971Z,22.86
2019-04-07T13:56:48.135Z,23.06
2019-04-07T13:59:33.646Z,23.09
2019-04-07T14:02:06.383Z,23.18
2019-04-07T14:04:39.606Z,23.22
2019-04-07T14:09:20.168Z,23.18
2019-04-07T14:12:05.083Z,22.59
2019-04-07T14:14:26.788Z,22.31
2019-04-07T14:17:01.782Z,22.22
2019-04-07T14:19:38.681Z,22.20
2019-04-07T14:22:13.444Z,22.28
2019-04-07T14:24:47.211Z,22.41
2019-04-07T14:27:31.159Z,22.38
2019-04-07T14:30:06.220Z,22.39
2019-04-07T14:32:39.777Z,22.33
2019-04-07T14:35:29.386Z,22.26
2019-04-07T14:38:13.550Z,22.37
2019-04-07T14:40:48.846Z,22.23
2019-04-07T14:43:22.265Z,22.12
2019-04-07T14:45:55.235Z,22.13
2019-04-07T14:50:32.137Z,22.33
2019-04-07T14:57:25.518Z,22.43
2019-04-07T15:00:00.000Z,22.21
2019-04-07T15:02:29.096Z,22.13
2019-04-07T15:05:01.834Z,22.23
2019-04-07T15:07:40.855Z,22.23
2019-04-07T15:10:20.242Z,22.24
2019-04-07T15:12:52.414Z,22.19
2019-04-07T15:15:21.214Z,22.16
2019-04-07T15:17:49.631Z,22.03
2019-04-07T15:20:19.651Z,21.87
2019-04-07T15:22:49.375Z,21.88
2019-04-07T15:25:18.409Z,21.96
2019-04-07T15:27:47.719Z,22.07
2019-04-07T15:30:18.105Z,21.96
2019-04-07T15:32:50.370Z,21.98
2019-04-07T15:35:18.473Z,21.93
2019-04-07T15:37:51.556Z,21.97
2019-04-07T15:40:18.119Z,22.04
2019-04-07T15:42:50.602Z,22.10
2019-04-07T15:45:16.814Z,22.15
2019-04-07T15:47:47.163Z,22.02
2019-04-07T15:50:14.800Z,21.87
2019-04-07T15:52:45.943Z,21.75
2019-04-07T15:55:13.483Z,21.68
2019-04-07T15:57:42.786Z,21.64
2019-04-07T16:00:11.232Z,21.48
2019-04-07T16:02:42.129Z,21.42
2019-04-07T16:05:18.156Z,21.32
2019-04-07T16:07:46.962Z,21.12
2019-04-07T16:10:18.675Z,21.07
2019-04-07T16:12:52.239Z,20.98
2019-04-07T16:15:19.460Z,20.91
2019-04-07T16:17:48.047Z,20.86
2019-04-07T16:20:22.934Z,20.76
2019-04-07T16:22:49.932Z,20.71
2019-04-07T16:25:16.454Z,20.72
2019-04-07T16:27:45.749Z,20.66
2019-04-07T16:30:16.383Z,20.65
2019-04-07T16:32:45.585Z,20.61
2019-04-07T16:35:16.361Z,20.61
2019-04-07T16:37:43.788Z,20.61
2019-04-07T16:40:13.056Z,20.57
2019-04-07T16:42:54.542Z,20.59
2019-04-07T16:45:18.027Z,20.63
2019-04-07T16:47:47.727Z,20.62
2019-04-07T16:50:18.520Z,20.64
2019-04-07T16:52:44.791Z,20.67
2019-04-07T16:55:48.871Z,20.63
2019-04-07T16:58:14.662Z,20.62
2019-04-07T17:00:43.476Z,20.62
2019-04-07T17:03:13.616Z,20.65
2019-04-07T17:05:43.060Z,20.58
2019-04-07T17:08:12.883Z,20.50
2019-04-07T17:10:41.447Z,20.44
2019-04-07T17:13:19.631Z,20.36
2019-04-07T17:15:41.573Z,20.25
2019-04-07T17:18:10.498Z,20.18
2019-04-07T17:20:44.337Z,20.12
2019-04-07T17:23:13.347Z,20.05
2019-04-07T17:25:41.733Z,19.93
2019-04-07T17:28:13.561Z,19.87
2019-04-07T17:30:40.156Z,19.81
2019-04-07T17:33:10.128Z,19.75
2019-04-07T17:35:39.051Z,19.68
2019-04-07T17:38:10.683Z,19.65
2019-04-07T17:40:43.690Z,19.60
2019-04-07T17:43:25.657Z,19.55
2019-04-07T17:45:54.632Z,19.50
2019-04-07T17:48:36.978Z,19.47
2019-04-07T17:51:04.570Z,19.40
2019-04-07T17:53:37.246Z,19.32
2019-04-07T17:56:20.112Z,19.25
2019-04-07T17:58:54.362Z,19.18
2019-04-07T18:01:30.381Z,19.12
2019-04-07T18:04:13.969Z,19.08
2019-04-07T18:06:46.029Z,18.98
2019-04-07T18:09:35.100Z,18.91
2019-04-07T18:12:13.900Z,18.85
2019-04-07T18:14:42.678Z,18.81
2019-04-07T18:17:20.339Z,18.75
2019-04-07T18:19:54.744Z,18.71
2019-04-07T18:22:29.852Z,18.66
2019-04-07T18:25:04.105Z,18.54
2019-04-07T18:27:36.275Z,18.47
2019-04-07T18:30:10.584Z,18.43
2019-04-07T18:32:49.280Z,18.40
2019-04-07T18:35:28.436Z,18.36
2019-04-07T18:38:00.331Z,18.33
2019-04-07T18:40:52.731Z,18.27
2019-04-07T18:44:26.162Z,18.22
2019-04-07T18:47:01.450Z,18.14
2019-04-07T18:49:34.081Z,18.08
2019-04-07T18:52:08.273Z,18.04
2019-04-07T18:55:18.083Z,17.99
2019-04-07T18:57:53.410Z,17.97
2019-04-07T19:01:04.298Z,17.92
2019-04-07T19:05:38.094Z,17.89
2019-04-07T19:08:17.847Z,17.78
2019-04-07T19:10:51.578Z,17.75
2019-04-07T19:13:39.272Z,17.71
2019-04-07T19:16:19.090Z,17.67
2019-04-07T19:20:52.557Z,17.65
2019-04-07T19:23:28.581Z,17.55
2019-04-07T19:26:06.280Z,17.49
2019-04-07T19:28:42.262Z,17.44
2019-04-07T19:31:18.267Z,17.40
2019-04-07T19:33:50.470Z,17.37
2019-04-07T19:36:22.942Z,17.34
2019-04-07T19:38:58.547Z,17.31
2019-04-07T19:41:33.877Z,17.28
2019-04-07T19:44:13.729Z,17.23
2019-04-07T19:46:48.178Z,17.17
2019-04-07T19:49:54.358Z,17.12
2019-04-07T19:52:26.954Z,17.08
2019-04-07T19:55:00.452Z,17.02
2019-04-07T19:59:41.658Z,16.97
2019-04-07T20:02:12.892Z,16.88
2019-04-07T20:04:50.152Z,16.81
2019-04-07T20:07:51.330Z,16.71
2019-04-07T20:10:26.997Z,16.64
2019-04-07T20:14:03.608Z,16.59
2019-04-07T20:16:38.423Z,16.51
2019-04-07T20:19:13.181Z,16.46
2019-04-07T20:21:53.679Z,16.43
2019-04-07T20:24:23.872Z,16.39
2019-04-07T20:27:03.073Z,16.36
2019-04-07T20:29:46.543Z,16.32
2019-04-07T20:32:35.247Z,16.28
2019-04-07T20:35:11.511Z,16.24
2019-04-07T20:37:47.107Z,16.21
2019-04-07T20:40:18.094Z,16.18
2019-04-07T20:42:53.273Z,16.13
2019-04-07T20:45:31.925Z,16.08
2019-04-07T20:48:05.111Z,16.05
2019-04-07T20:50:43.638Z,16.01
2019-04-07T20:53:22.188Z,15.98
2019-04-07T20:55:50.740Z,15.94
2019-04-07T20:58:41.604Z,15.91
2019-04-07T21:01:04.514Z,15.85
2019-04-07T21:03:51.949Z,15.83
2019-04-07T21:06:59.871Z,15.80
2019-04-07T21:10:08.267Z,15.79
2019-04-07T21:12:37.882Z,15.76
2019-04-07T21:15:30.039Z,15.75
2019-04-07T21:18:05.347Z,15.70
2019-04-07T21:20:45.335Z,15.67
2019-04-07T21:23:19.520Z,15.65
2019-04-07T21:26:51.876Z,15.62
2019-04-07T21:29:25.958Z,15.53
2019-04-07T21:32:02.388Z,15.50
2019-04-07T21:34:36.494Z,15.46
2019-04-07T21:37:14.794Z,15.42
2019-04-07T21:39:51.632Z,15.39
2019-04-07T21:42:36.061Z,15.40
2019-04-07T21:45:14.788Z,15.40
2019-04-07T21:47:51.004Z,15.36
2019-04-07T21:50:26.062Z,15.31
2019-04-07T21:53:03.115Z,15.27
2019-04-07T21:55:46.040Z,15.27
2019-04-07T21:58:26.296Z,15.27
2019-04-07T22:00:58.462Z,15.29
2019-04-07T22:03:39.548Z,15.29
2019-04-07T22:06:14.468Z,15.31
2019-04-07T22:08:47.173Z,15.30
2019-04-07T22:11:15.599Z,15.24
2019-04-07T22:13:44.895Z,15.16
2019-04-07T22:16:14.273Z,15.10
2019-04-07T22:18:43.061Z,15.02
2019-04-07T22:21:11.761Z,14.94
2019-04-07T22:23:40.693Z,14.86
2019-04-07T22:26:16.209Z,14.78
2019-04-07T22:28:39.437Z,14.69
2019-04-07T22:31:08.900Z,14.63
2019-04-07T22:33:36.853Z,14.55
2019-04-07T22:36:05.900Z,14.50
2019-04-07T22:38:34.280Z,14.46
2019-04-07T22:41:06.966Z,14.43
2019-04-07T22:43:32.040Z,14.40
2019-04-07T22:46:08.544Z,14.38
2019-04-07T22:48:29.756Z,14.35
2019-04-07T22:50:58.826Z,14.32
2019-04-07T22:53:29.856Z,14.36
2019-04-07T22:55:56.997Z,14.35
2019-04-07T22:58:27.714Z,14.31
2019-04-07T23:00:55.482Z,14.26
2019-04-07T23:03:24.296Z,14.21
2019-04-07T23:05:53.375Z,14.16
2019-04-07T23:08:22.418Z,14.12
2019-04-07T23:10:52.072Z,14.08
2019-04-07T23:13:21.678Z,14.02
2019-04-07T23:15:50.336Z,13.97
2019-04-07T23:18:18.479Z,13.88
2019-04-07T23:20:47.934Z,13.82
2019-04-07T23:23:16.446Z,13.78
2019-04-07T23:25:46.690Z,13.82
2019-04-07T23:28:16.645Z,13.81
2019-04-07T23:30:45.088Z,13.79
2019-04-07T23:33:14.660Z,13.76
2019-04-07T23:35:42.898Z,13.75
2019-04-07T23:38:13.359Z,13.73
2019-04-07T23:40:41.962Z,13.69
2019-04-07T23:43:11.160Z,13.63
2019-04-07T23:45:39.929Z,13.59
2019-04-07T23:48:08.483Z,13.55
2019-04-07T23:50:37.407Z,13.54
2019-04-07T23:53:17.567Z,13.51
2019-04-07T23:55:46.431Z,13.53
2019-04-07T23:58:15.308Z,13.52
